sensor_id;sensor_type;location;lat;lon;timestamp;P1;durP1;ratioP1;P2;durP2;ratioP2
20014;SDS011;61787;42.022;23.078;2023-02-01T00:00:25;6.57;;;3.13;;
20014;SDS011;61787;42.022;23.078;2023-02-01T00:01:26;5.00;;;3.53;;
20014;SDS011;61787;42.022;23.078;2023-02-01T00:02:28;5.90;;;3.33;;
20014;SDS011;61787;42.022;23.078;2023-02-01T00:03:29;6.77;;;3.20;;
20014;SDS011;61787;42.022;23.078;2023-02-01T00:04:31;7.13;;;2.90;;
20014;SDS011;61787;42.022;23.078;2023-02-01T00:05:33;4.80;;;3.03;;
20014;SDS011;61787;42.022;23.078;2023-02-01T00:06:34;4.47;;;3.00;;
20014;SDS011;61787;42.022;23.078;2023-02-01T00:07:36;4.50;;;3.10;;
20014;SDS011;61787;42.022;23.078;2023-02-01T00:08:38;4.97;;;2.80;;
20014;SDS011;61787;42.022;23.078;2023-02-01T00:09:40;7.67;;;2.93;;
20014;SDS011;61787;42.022;23.078;2023-02-01T00:10:41;4.57;;;2.53;;
20014;SDS011;61787;42.022;23.078;2023-02-01T00:11:43;10.70;;;3.47;;
20014;SDS011;61787;42.022;23.078;2023-02-01T00:12:45;4.03;;;2.97;;
20014;SDS011;61787;42.022;23.078;2023-02-01T00:13:47;5.20;;;3.30;;
20014;SDS011;61787;42.022;23.078;2023-02-01T00:14:49;8.17;;;3.20;;
20014;SDS011;61787;42.022;23.078;2023-02-01T00:15:51;6.53;;;2.97;;
20014;SDS011;61787;42.022;23.078;2023-02-01T00:16:52;6.90;;;2.80;;
20014;SDS011;61787;42.022;23.078;2023-02-01T00:17:54;5.70;;;3.33;;
20014;SDS011;61787;42.022;23.078;2023-02-01T00:19:00;8.27;;;3.10;;
20014;SDS011;61787;42.022;23.078;2023-02-01T00:20:06;4.33;;;3.00;;
20014;SDS011;61787;42.022;23.078;2023-02-01T00:21:12;7.17;;;3.50;;
20014;SDS011;61787;42.022;23.078;2023-02-01T00:22:14;3.57;;;2.67;;
20014;SDS011;61787;42.022;23.078;2023-02-01T00:23:16;4.43;;;3.30;;
20014;SDS011;61787;42.022;23.078;2023-02-01T00:24:17;8.83;;;2.87;;
20014;SDS011;61787;42.022;23.078;2023-02-01T00:25:19;4.70;;;2.63;;
20014;SDS011;61787;42.022;23.078;2023-02-01T00:26:22;4.50;;;2.67;;
20014;SDS011;61787;42.022;23.078;2023-02-01T00:27:31;3.23;;;2.77;;
20014;SDS011;61787;42.022;23.078;2023-02-01T00:28:33;6.27;;;3.40;;
20014;SDS011;61787;42.022;23.078;2023-02-01T00:29:34;6.73;;;2.73;;
20014;SDS011;61787;42.022;23.078;2023-02-01T00:30:36;7.27;;;2.90;;
20014;SDS011;61787;42.022;23.078;2023-02-01T00:31:38;4.70;;;3.00;;
20014;SDS011;61787;42.022;23.078;2023-02-01T00:32:40;4.50;;;3.07;;
20014;SDS011;61787;42.022;23.078;2023-02-01T00:33:41;7.57;;;3.00;;
20014;SDS011;61787;42.022;23.078;2023-02-01T00:34:43;5.73;;;3.00;;
20014;SDS011;61787;42.022;23.078;2023-02-01T00:35:44;4.60;;;2.97;;
20014;SDS011;61787;42.022;23.078;2023-02-01T00:36:46;5.57;;;3.10;;
20014;SDS011;61787;42.022;23.078;2023-02-01T00:37:49;6.47;;;3.27;;
20014;SDS011;61787;42.022;23.078;2023-02-01T00:38:50;5.93;;;3.30;;
20014;SDS011;61787;42.022;23.078;2023-02-01T00:39:52;5.97;;;3.37;;
20014;SDS011;61787;42.022;23.078;2023-02-01T00:41:02;5.70;;;3.53;;
20014;SDS011;61787;42.022;23.078;2023-02-01T00:42:08;8.53;;;3.87;;
20014;SDS011;61787;42.022;23.078;2023-02-01T00:43:09;10.37;;;3.40;;
20014;SDS011;61787;42.022;23.078;2023-02-01T00:44:11;6.10;;;3.03;;
20014;SDS011;61787;42.022;23.078;2023-02-01T00:45:12;6.67;;;3.70;;
20014;SDS011;61787;42.022;23.078;2023-02-01T00:46:14;6.23;;;3.40;;
20014;SDS011;61787;42.022;23.078;2023-02-01T00:47:17;9.07;;;3.27;;
20014;SDS011;61787;42.022;23.078;2023-02-01T00:48:21;7.40;;;3.10;;
20014;SDS011;61787;42.022;23.078;2023-02-01T00:49:22;5.63;;;3.17;;
20014;SDS011;61787;42.022;23.078;2023-02-01T00:50:24;3.77;;;2.80;;
20014;SDS011;61787;42.022;23.078;2023-02-01T00:51:26;5.57;;;3.27;;
20014;SDS011;61787;42.022;23.078;2023-02-01T00:52:29;7.10;;;3.67;;
20014;SDS011;61787;42.022;23.078;2023-02-01T00:53:31;5.73;;;3.30;;
20014;SDS011;61787;42.022;23.078;2023-02-01T00:54:33;5.93;;;3.20;;
20014;SDS011;61787;42.022;23.078;2023-02-01T00:55:35;5.73;;;3.10;;
20014;SDS011;61787;42.022;23.078;2023-02-01T00:56:36;4.20;;;3.20;;
20014;SDS011;61787;42.022;23.078;2023-02-01T00:57:38;5.03;;;3.30;;
20014;SDS011;61787;42.022;23.078;2023-02-01T00:58:39;4.80;;;2.70;;
20014;SDS011;61787;42.022;23.078;2023-02-01T00:59:45;6.50;;;3.23;;
20014;SDS011;61787;42.022;23.078;2023-02-01T01:00:47;7.20;;;4.17;;
20014;SDS011;61787;42.022;23.078;2023-02-01T01:01:50;5.37;;;3.37;;
20014;SDS011;61787;42.022;23.078;2023-02-01T01:02:52;4.57;;;3.30;;
20014;SDS011;61787;42.022;23.078;2023-02-01T01:03:58;4.60;;;3.00;;
20014;SDS011;61787;42.022;23.078;2023-02-01T01:05:00;6.00;;;3.10;;
20014;SDS011;61787;42.022;23.078;2023-02-01T01:06:03;10.33;;;2.80;;
20014;SDS011;61787;42.022;23.078;2023-02-01T01:07:10;5.53;;;2.47;;
20014;SDS011;61787;42.022;23.078;2023-02-01T01:08:12;6.83;;;3.27;;
20014;SDS011;61787;42.022;23.078;2023-02-01T01:09:14;5.53;;;3.00;;
20014;SDS011;61787;42.022;23.078;2023-02-01T01:10:16;4.40;;;2.60;;
20014;SDS011;61787;42.022;23.078;2023-02-01T01:11:19;5.13;;;2.73;;
20014;SDS011;61787;42.022;23.078;2023-02-01T01:12:22;5.00;;;2.53;;
20014;SDS011;61787;42.022;23.078;2023-02-01T01:13:24;3.20;;;2.40;;
20014;SDS011;61787;42.022;23.078;2023-02-01T01:14:26;4.03;;;2.83;;
20014;SDS011;61787;42.022;23.078;2023-02-01T01:15:27;3.30;;;2.60;;
20014;SDS011;61787;42.022;23.078;2023-02-01T01:16:29;2.73;;;2.20;;
20014;SDS011;61787;42.022;23.078;2023-02-01T01:17:32;3.80;;;2.50;;
20014;SDS011;61787;42.022;23.078;2023-02-01T01:18:34;5.23;;;2.40;;
20014;SDS011;61787;42.022;23.078;2023-02-01T01:19:36;4.40;;;2.80;;
20014;SDS011;61787;42.022;23.078;2023-02-01T01:20:38;2.90;;;2.30;;
20014;SDS011;61787;42.022;23.078;2023-02-01T01:21:41;3.67;;;2.50;;
20014;SDS011;61787;42.022;23.078;2023-02-01T01:22:42;3.23;;;2.50;;
20014;SDS011;61787;42.022;23.078;2023-02-01T01:23:44;2.50;;;2.30;;
20014;SDS011;61787;42.022;23.078;2023-02-01T01:24:46;4.67;;;2.47;;
20014;SDS011;61787;42.022;23.078;2023-02-01T01:25:48;3.57;;;2.50;;
20014;SDS011;61787;42.022;23.078;2023-02-01T01:26:50;4.33;;;2.77;;
20014;SDS011;61787;42.022;23.078;2023-02-01T01:27:52;7.47;;;2.70;;
20014;SDS011;61787;42.022;23.078;2023-02-01T01:28:57;3.63;;;2.47;;
20014;SDS011;61787;42.022;23.078;2023-02-01T01:30:00;5.97;;;2.70;;
20014;SDS011;61787;42.022;23.078;2023-02-01T01:31:02;3.30;;;2.30;;
20014;SDS011;61787;42.022;23.078;2023-02-01T01:32:04;4.13;;;2.83;;
20014;SDS011;61787;42.022;23.078;2023-02-01T01:33:05;4.47;;;2.77;;
20014;SDS011;61787;42.022;23.078;2023-02-01T01:34:08;4.80;;;2.87;;
20014;SDS011;61787;42.022;23.078;2023-02-01T01:35:10;3.80;;;2.77;;
20014;SDS011;61787;42.022;23.078;2023-02-01T01:36:12;3.27;;;2.60;;
20014;SDS011;61787;42.022;23.078;2023-02-01T01:37:13;3.90;;;2.67;;
20014;SDS011;61787;42.022;23.078;2023-02-01T01:38:15;3.23;;;2.80;;
20014;SDS011;61787;42.022;23.078;2023-02-01T01:39:17;3.33;;;2.70;;
20014;SDS011;61787;42.022;23.078;2023-02-01T01:40:18;4.60;;;2.90;;
20014;SDS011;61787;42.022;23.078;2023-02-01T01:41:21;3.80;;;2.93;;
20014;SDS011;61787;42.022;23.078;2023-02-01T01:42:25;5.60;;;2.60;;
20014;SDS011;61787;42.022;23.078;2023-02-01T01:43:44;3.50;;;2.87;;
20014;SDS011;61787;42.022;23.078;2023-02-01T01:45:04;3.77;;;2.70;;
20014;SDS011;61787;42.022;23.078;2023-02-01T01:46:07;4.93;;;3.33;;
20014;SDS011;61787;42.022;23.078;2023-02-01T01:47:09;3.67;;;2.73;;
20014;SDS011;61787;42.022;23.078;2023-02-01T01:48:13;5.77;;;3.27;;
20014;SDS011;61787;42.022;23.078;2023-02-01T01:49:22;4.47;;;3.07;;
20014;SDS011;61787;42.022;23.078;2023-02-01T01:51:12;5.00;;;3.50;;
20014;SDS011;61787;42.022;23.078;2023-02-01T01:51:54;4.00;;;3.13;;
20014;SDS011;61787;42.022;23.078;2023-02-01T01:53:00;4.20;;;3.40;;
20014;SDS011;61787;42.022;23.078;2023-02-01T01:55:18;4.90;;;3.10;;
20014;SDS011;61787;42.022;23.078;2023-02-01T01:56:21;5.27;;;3.47;;
20014;SDS011;61787;42.022;23.078;2023-02-01T01:57:24;5.27;;;3.63;;
20014;SDS011;61787;42.022;23.078;2023-02-01T01:58:27;4.20;;;3.47;;
20014;SDS011;61787;42.022;23.078;2023-02-01T01:59:33;4.73;;;3.40;;
20014;SDS011;61787;42.022;23.078;2023-02-01T02:00:38;5.10;;;4.10;;
20014;SDS011;61787;42.022;23.078;2023-02-01T02:01:40;4.57;;;3.40;;
20014;SDS011;61787;42.022;23.078;2023-02-01T02:02:43;4.27;;;3.43;;
20014;SDS011;61787;42.022;23.078;2023-02-01T02:03:47;8.60;;;3.97;;
20014;SDS011;61787;42.022;23.078;2023-02-01T02:04:49;6.67;;;3.73;;
20014;SDS011;61787;42.022;23.078;2023-02-01T02:05:52;5.40;;;3.47;;
20014;SDS011;61787;42.022;23.078;2023-02-01T02:06:59;4.53;;;3.87;;
20014;SDS011;61787;42.022;23.078;2023-02-01T02:08:04;5.67;;;3.30;;
20014;SDS011;61787;42.022;23.078;2023-02-01T02:09:05;5.47;;;3.63;;
20014;SDS011;61787;42.022;23.078;2023-02-01T02:10:08;4.90;;;3.90;;
20014;SDS011;61787;42.022;23.078;2023-02-01T02:11:15;5.70;;;3.63;;
20014;SDS011;61787;42.022;23.078;2023-02-01T02:12:18;4.40;;;3.67;;
20014;SDS011;61787;42.022;23.078;2023-02-01T02:13:19;3.47;;;3.10;;
20014;SDS011;61787;42.022;23.078;2023-02-01T02:14:21;4.90;;;3.73;;
20014;SDS011;61787;42.022;23.078;2023-02-01T02:15:25;4.47;;;3.30;;
20014;SDS011;61787;42.022;23.078;2023-02-01T02:16:36;4.77;;;3.23;;
20014;SDS011;61787;42.022;23.078;2023-02-01T02:18:05;5.20;;;3.40;;
20014;SDS011;61787;42.022;23.078;2023-02-01T02:20:41;4.30;;;3.30;;
20014;SDS011;61787;42.022;23.078;2023-02-01T02:22:19;3.80;;;2.83;;
20014;SDS011;61787;42.022;23.078;2023-02-01T02:30:37;5.33;;;3.53;;
20014;SDS011;61787;42.022;23.078;2023-02-01T02:35:05;6.50;;;3.43;;
20014;SDS011;61787;42.022;23.078;2023-02-01T02:38:53;5.33;;;3.33;;
20014;SDS011;61787;42.022;23.078;2023-02-01T02:43:12;5.07;;;3.97;;
20014;SDS011;61787;42.022;23.078;2023-02-01T02:44:53;5.00;;;3.77;;
20014;SDS011;61787;42.022;23.078;2023-02-01T02:46:22;4.97;;;3.70;;
20014;SDS011;61787;42.022;23.078;2023-02-01T02:48:00;5.27;;;3.80;;
20014;SDS011;61787;42.022;23.078;2023-02-01T02:50:44;6.63;;;4.03;;
20014;SDS011;61787;42.022;23.078;2023-02-01T02:52:11;5.87;;;3.97;;
20014;SDS011;61787;42.022;23.078;2023-02-01T02:55:08;4.77;;;3.93;;
20014;SDS011;61787;42.022;23.078;2023-02-01T02:56:11;6.47;;;3.80;;
20014;SDS011;61787;42.022;23.078;2023-02-01T02:57:34;6.07;;;3.83;;
20014;SDS011;61787;42.022;23.078;2023-02-01T02:58:57;4.70;;;3.77;;
20014;SDS011;61787;42.022;23.078;2023-02-01T03:00:19;6.27;;;3.80;;
20014;SDS011;61787;42.022;23.078;2023-02-01T03:01:43;5.37;;;3.93;;
20014;SDS011;61787;42.022;23.078;2023-02-01T03:03:04;5.57;;;3.70;;
20014;SDS011;61787;42.022;23.078;2023-02-01T03:04:25;5.33;;;3.80;;
20014;SDS011;61787;42.022;23.078;2023-02-01T03:05:31;8.13;;;4.07;;
20014;SDS011;61787;42.022;23.078;2023-02-01T03:06:37;6.03;;;4.37;;
20014;SDS011;61787;42.022;23.078;2023-02-01T03:07:49;4.47;;;4.03;;
20014;SDS011;61787;42.022;23.078;2023-02-01T03:09:28;5.07;;;4.33;;
20014;SDS011;61787;42.022;23.078;2023-02-01T03:11:55;6.17;;;4.63;;
20014;SDS011;61787;42.022;23.078;2023-02-01T03:13:31;5.43;;;4.23;;
20014;SDS011;61787;42.022;23.078;2023-02-01T03:14:43;4.87;;;3.67;;
20014;SDS011;61787;42.022;23.078;2023-02-01T03:16:57;5.77;;;3.57;;
20014;SDS011;61787;42.022;23.078;2023-02-01T03:18:04;4.80;;;3.70;;
20014;SDS011;61787;42.022;23.078;2023-02-01T03:20:26;4.07;;;3.53;;
20014;SDS011;61787;42.022;23.078;2023-02-01T03:22:53;4.93;;;2.90;;
20014;SDS011;61787;42.022;23.078;2023-02-01T03:23:58;4.57;;;3.50;;
20014;SDS011;61787;42.022;23.078;2023-02-01T03:25:14;6.43;;;4.20;;
20014;SDS011;61787;42.022;23.078;2023-02-01T03:26:22;6.63;;;4.73;;
20014;SDS011;61787;42.022;23.078;2023-02-01T03:27:27;5.33;;;3.87;;
20014;SDS011;61787;42.022;23.078;2023-02-01T03:28:35;8.00;;;4.20;;
20014;SDS011;61787;42.022;23.078;2023-02-01T03:30:55;6.37;;;4.40;;
20014;SDS011;61787;42.022;23.078;2023-02-01T03:31:58;5.67;;;4.20;;
20014;SDS011;61787;42.022;23.078;2023-02-01T03:33:00;6.10;;;4.07;;
20014;SDS011;61787;42.022;23.078;2023-02-01T03:34:06;6.60;;;4.50;;
20014;SDS011;61787;42.022;23.078;2023-02-01T03:35:07;5.67;;;3.93;;
20014;SDS011;61787;42.022;23.078;2023-02-01T03:36:12;5.90;;;4.67;;
20014;SDS011;61787;42.022;23.078;2023-02-01T03:37:22;7.30;;;4.73;;
20014;SDS011;61787;42.022;23.078;2023-02-01T03:38:30;8.33;;;4.93;;
20014;SDS011;61787;42.022;23.078;2023-02-01T03:39:36;7.13;;;5.60;;
20014;SDS011;61787;42.022;23.078;2023-02-01T03:40:40;6.90;;;5.60;;
20014;SDS011;61787;42.022;23.078;2023-02-01T03:41:55;7.13;;;5.70;;
20014;SDS011;61787;42.022;23.078;2023-02-01T03:43:00;8.33;;;5.77;;
20014;SDS011;61787;42.022;23.078;2023-02-01T03:46:34;6.13;;;5.30;;
20014;SDS011;61787;42.022;23.078;2023-02-01T03:47:41;7.03;;;5.60;;
20014;SDS011;61787;42.022;23.078;2023-02-01T03:48:45;6.97;;;4.90;;
20014;SDS011;61787;42.022;23.078;2023-02-01T03:49:50;6.43;;;4.27;;
20014;SDS011;61787;42.022;23.078;2023-02-01T03:50:55;4.93;;;3.80;;
20014;SDS011;61787;42.022;23.078;2023-02-01T03:52:00;3.97;;;3.57;;
20014;SDS011;61787;42.022;23.078;2023-02-01T03:53:09;5.03;;;4.10;;
20014;SDS011;61787;42.022;23.078;2023-02-01T03:54:14;4.07;;;3.20;;
20014;SDS011;61787;42.022;23.078;2023-02-01T03:55:19;4.53;;;3.20;;
20014;SDS011;61787;42.022;23.078;2023-02-01T03:56:25;5.70;;;3.07;;
20014;SDS011;61787;42.022;23.078;2023-02-01T03:57:30;3.87;;;3.03;;
20014;SDS011;61787;42.022;23.078;2023-02-01T03:58:36;4.27;;;2.97;;
20014;SDS011;61787;42.022;23.078;2023-02-01T03:59:40;7.77;;;3.87;;
20014;SDS011;61787;42.022;23.078;2023-02-01T04:00:50;4.10;;;3.30;;
20014;SDS011;61787;42.022;23.078;2023-02-01T04:01:53;4.57;;;3.67;;
20014;SDS011;61787;42.022;23.078;2023-02-01T04:02:54;6.77;;;3.70;;
20014;SDS011;61787;42.022;23.078;2023-02-01T04:03:57;5.60;;;3.40;;
20014;SDS011;61787;42.022;23.078;2023-02-01T04:04:59;5.13;;;3.40;;
20014;SDS011;61787;42.022;23.078;2023-02-01T04:06:00;5.60;;;3.63;;
20014;SDS011;61787;42.022;23.078;2023-02-01T04:07:02;4.13;;;3.57;;
20014;SDS011;61787;42.022;23.078;2023-02-01T04:08:04;5.00;;;3.27;;
20014;SDS011;61787;42.022;23.078;2023-02-01T04:09:06;5.33;;;3.27;;
20014;SDS011;61787;42.022;23.078;2023-02-01T04:10:08;4.57;;;3.30;;
20014;SDS011;61787;42.022;23.078;2023-02-01T04:11:10;5.30;;;3.47;;
20014;SDS011;61787;42.022;23.078;2023-02-01T04:12:12;3.57;;;3.17;;
20014;SDS011;61787;42.022;23.078;2023-02-01T04:13:14;4.30;;;2.73;;
20014;SDS011;61787;42.022;23.078;2023-02-01T04:14:15;4.03;;;3.13;;
20014;SDS011;61787;42.022;23.078;2023-02-01T04:15:17;4.43;;;3.40;;
20014;SDS011;61787;42.022;23.078;2023-02-01T04:16:19;3.33;;;3.00;;
20014;SDS011;61787;42.022;23.078;2023-02-01T04:17:20;3.73;;;2.60;;
20014;SDS011;61787;42.022;23.078;2023-02-01T04:18:22;3.50;;;2.37;;
20014;SDS011;61787;42.022;23.078;2023-02-01T04:19:24;2.87;;;2.23;;
20014;SDS011;61787;42.022;23.078;2023-02-01T04:20:25;2.83;;;2.30;;
20014;SDS011;61787;42.022;23.078;2023-02-01T04:21:28;4.47;;;2.90;;
20014;SDS011;61787;42.022;23.078;2023-02-01T04:22:30;3.37;;;2.30;;
20014;SDS011;61787;42.022;23.078;2023-02-01T04:23:31;6.37;;;2.83;;
20014;SDS011;61787;42.022;23.078;2023-02-01T04:24:33;4.03;;;2.40;;
20014;SDS011;61787;42.022;23.078;2023-02-01T04:25:34;3.53;;;2.50;;
20014;SDS011;61787;42.022;23.078;2023-02-01T04:26:36;5.40;;;2.43;;
20014;SDS011;61787;42.022;23.078;2023-02-01T04:27:37;3.37;;;2.60;;
20014;SDS011;61787;42.022;23.078;2023-02-01T04:28:38;3.93;;;2.60;;
20014;SDS011;61787;42.022;23.078;2023-02-01T04:29:40;3.90;;;2.70;;
20014;SDS011;61787;42.022;23.078;2023-02-01T04:30:42;5.17;;;2.83;;
20014;SDS011;61787;42.022;23.078;2023-02-01T04:31:44;8.70;;;4.80;;
20014;SDS011;61787;42.022;23.078;2023-02-01T04:32:45;16.67;;;10.03;;
20014;SDS011;61787;42.022;23.078;2023-02-01T04:33:47;19.63;;;10.93;;
20014;SDS011;61787;42.022;23.078;2023-02-01T04:34:49;15.33;;;9.10;;
20014;SDS011;61787;42.022;23.078;2023-02-01T04:35:51;9.70;;;5.47;;
20014;SDS011;61787;42.022;23.078;2023-02-01T04:36:52;5.10;;;3.50;;
20014;SDS011;61787;42.022;23.078;2023-02-01T04:37:54;5.20;;;2.47;;
20014;SDS011;61787;42.022;23.078;2023-02-01T04:38:55;5.07;;;2.30;;
20014;SDS011;61787;42.022;23.078;2023-02-01T04:39:57;4.47;;;2.33;;
20014;SDS011;61787;42.022;23.078;2023-02-01T04:40:58;4.37;;;2.53;;
20014;SDS011;61787;42.022;23.078;2023-02-01T04:42:00;4.10;;;2.50;;
20014;SDS011;61787;42.022;23.078;2023-02-01T04:43:02;4.23;;;2.20;;
20014;SDS011;61787;42.022;23.078;2023-02-01T04:44:04;3.27;;;2.17;;
20014;SDS011;61787;42.022;23.078;2023-02-01T04:45:06;2.87;;;2.37;;
20014;SDS011;61787;42.022;23.078;2023-02-01T04:46:08;4.60;;;2.10;;
20014;SDS011;61787;42.022;23.078;2023-02-01T04:47:10;4.50;;;1.97;;
20014;SDS011;61787;42.022;23.078;2023-02-01T04:48:12;3.73;;;2.20;;
20014;SDS011;61787;42.022;23.078;2023-02-01T04:49:13;3.57;;;2.20;;
20014;SDS011;61787;42.022;23.078;2023-02-01T04:50:16;6.37;;;2.27;;
20014;SDS011;61787;42.022;23.078;2023-02-01T04:51:17;4.13;;;2.33;;
20014;SDS011;61787;42.022;23.078;2023-02-01T04:52:19;4.20;;;2.30;;
20014;SDS011;61787;42.022;23.078;2023-02-01T04:53:20;5.30;;;1.90;;
20014;SDS011;61787;42.022;23.078;2023-02-01T04:54:22;7.20;;;1.93;;
20014;SDS011;61787;42.022;23.078;2023-02-01T04:55:23;3.23;;;1.87;;
20014;SDS011;61787;42.022;23.078;2023-02-01T04:56:25;4.50;;;2.43;;
20014;SDS011;61787;42.022;23.078;2023-02-01T04:57:27;4.10;;;2.00;;
20014;SDS011;61787;42.022;23.078;2023-02-01T04:58:28;5.83;;;2.30;;
20014;SDS011;61787;42.022;23.078;2023-02-01T04:59:30;8.03;;;2.53;;
20014;SDS011;61787;42.022;23.078;2023-02-01T05:00:32;5.43;;;2.20;;
20014;SDS011;61787;42.022;23.078;2023-02-01T05:01:33;4.23;;;2.03;;
20014;SDS011;61787;42.022;23.078;2023-02-01T05:02:35;4.60;;;2.00;;
20014;SDS011;61787;42.022;23.078;2023-02-01T05:03:37;4.70;;;1.90;;
20014;SDS011;61787;42.022;23.078;2023-02-01T05:04:38;7.13;;;1.87;;
20014;SDS011;61787;42.022;23.078;2023-02-01T05:05:40;4.17;;;2.13;;
20014;SDS011;61787;42.022;23.078;2023-02-01T05:06:42;4.00;;;2.23;;
20014;SDS011;61787;42.022;23.078;2023-02-01T05:07:43;6.50;;;2.13;;
20014;SDS011;61787;42.022;23.078;2023-02-01T05:08:47;7.73;;;2.00;;
20014;SDS011;61787;42.022;23.078;2023-02-01T05:09:49;4.17;;;2.07;;
20014;SDS011;61787;42.022;23.078;2023-02-01T05:10:51;3.47;;;1.60;;
20014;SDS011;61787;42.022;23.078;2023-02-01T05:11:52;5.43;;;2.00;;
20014;SDS011;61787;42.022;23.078;2023-02-01T05:13:13;3.43;;;2.10;;
20014;SDS011;61787;42.022;23.078;2023-02-01T05:14:33;4.00;;;1.80;;
20014;SDS011;61787;42.022;23.078;2023-02-01T05:15:35;6.50;;;2.23;;
20014;SDS011;61787;42.022;23.078;2023-02-01T05:16:36;4.20;;;1.80;;
20014;SDS011;61787;42.022;23.078;2023-02-01T05:17:38;4.33;;;1.80;;
20014;SDS011;61787;42.022;23.078;2023-02-01T05:18:41;4.30;;;1.90;;
20014;SDS011;61787;42.022;23.078;2023-02-01T05:19:42;4.73;;;1.73;;
20014;SDS011;61787;42.022;23.078;2023-02-01T05:20:44;3.23;;;2.00;;
20014;SDS011;61787;42.022;23.078;2023-02-01T05:21:46;3.23;;;2.10;;
20014;SDS011;61787;42.022;23.078;2023-02-01T05:22:47;4.60;;;2.03;;
20014;SDS011;61787;42.022;23.078;2023-02-01T05:23:49;5.40;;;2.50;;
20014;SDS011;61787;42.022;23.078;2023-02-01T05:25:09;5.90;;;1.73;;
20014;SDS011;61787;42.022;23.078;2023-02-01T05:26:11;9.13;;;1.80;;
20014;SDS011;61787;42.022;23.078;2023-02-01T05:27:12;5.07;;;1.90;;
20014;SDS011;61787;42.022;23.078;2023-02-01T05:28:14;6.57;;;2.00;;
20014;SDS011;61787;42.022;23.078;2023-02-01T05:29:16;4.93;;;2.17;;
20014;SDS011;61787;42.022;23.078;2023-02-01T05:30:18;3.87;;;1.93;;
20014;SDS011;61787;42.022;23.078;2023-02-01T05:31:21;3.93;;;1.57;;
20014;SDS011;61787;42.022;23.078;2023-02-01T05:32:23;3.33;;;1.80;;
20014;SDS011;61787;42.022;23.078;2023-02-01T05:33:25;4.50;;;2.43;;
20014;SDS011;61787;42.022;23.078;2023-02-01T05:34:26;3.10;;;1.80;;
20014;SDS011;61787;42.022;23.078;2023-02-01T05:35:28;5.73;;;1.87;;
20014;SDS011;61787;42.022;23.078;2023-02-01T05:36:30;12.77;;;2.30;;
20014;SDS011;61787;42.022;23.078;2023-02-01T05:37:32;5.83;;;2.50;;
20014;SDS011;61787;42.022;23.078;2023-02-01T05:38:33;5.77;;;1.73;;
20014;SDS011;61787;42.022;23.078;2023-02-01T05:39:35;6.67;;;1.70;;
20014;SDS011;61787;42.022;23.078;2023-02-01T05:40:36;4.00;;;1.87;;
20014;SDS011;61787;42.022;23.078;2023-02-01T05:41:38;6.93;;;1.87;;
20014;SDS011;61787;42.022;23.078;2023-02-01T05:42:40;4.00;;;1.93;;
20014;SDS011;61787;42.022;23.078;2023-02-01T05:43:41;7.17;;;2.23;;
20014;SDS011;61787;42.022;23.078;2023-02-01T05:44:43;9.67;;;2.00;;
20014;SDS011;61787;42.022;23.078;2023-02-01T05:45:44;4.57;;;2.27;;
20014;SDS011;61787;42.022;23.078;2023-02-01T05:46:46;5.93;;;2.60;;
20014;SDS011;61787;42.022;23.078;2023-02-01T05:47:50;8.50;;;2.10;;
20014;SDS011;61787;42.022;23.078;2023-02-01T05:48:51;4.37;;;2.30;;
20014;SDS011;61787;42.022;23.078;2023-02-01T05:49:53;6.87;;;2.00;;
20014;SDS011;61787;42.022;23.078;2023-02-01T05:50:55;4.30;;;2.13;;
20014;SDS011;61787;42.022;23.078;2023-02-01T05:51:56;7.63;;;2.00;;
20014;SDS011;61787;42.022;23.078;2023-02-01T05:53:00;6.17;;;2.20;;
20014;SDS011;61787;42.022;23.078;2023-02-01T05:54:02;6.13;;;2.03;;
20014;SDS011;61787;42.022;23.078;2023-02-01T05:55:04;6.20;;;1.73;;
20014;SDS011;61787;42.022;23.078;2023-02-01T05:56:06;5.97;;;2.27;;
20014;SDS011;61787;42.022;23.078;2023-02-01T05:57:08;4.63;;;2.20;;
20014;SDS011;61787;42.022;23.078;2023-02-01T05:58:09;4.43;;;1.93;;
20014;SDS011;61787;42.022;23.078;2023-02-01T05:59:11;6.97;;;2.03;;
20014;SDS011;61787;42.022;23.078;2023-02-01T06:00:13;5.67;;;1.80;;
20014;SDS011;61787;42.022;23.078;2023-02-01T06:01:14;9.20;;;2.67;;
20014;SDS011;61787;42.022;23.078;2023-02-01T06:02:16;5.87;;;2.17;;
20014;SDS011;61787;42.022;23.078;2023-02-01T06:03:18;5.30;;;1.80;;
20014;SDS011;61787;42.022;23.078;2023-02-01T06:04:20;6.77;;;1.87;;
20014;SDS011;61787;42.022;23.078;2023-02-01T06:05:21;4.43;;;1.90;;
20014;SDS011;61787;42.022;23.078;2023-02-01T06:06:23;10.30;;;2.50;;
20014;SDS011;61787;42.022;23.078;2023-02-01T06:07:25;6.10;;;1.90;;
20014;SDS011;61787;42.022;23.078;2023-02-01T06:08:29;5.53;;;2.10;;
20014;SDS011;61787;42.022;23.078;2023-02-01T06:09:31;5.17;;;1.97;;
20014;SDS011;61787;42.022;23.078;2023-02-01T06:10:33;6.93;;;2.37;;
20014;SDS011;61787;42.022;23.078;2023-02-01T06:11:34;8.03;;;1.83;;
20014;SDS011;61787;42.022;23.078;2023-02-01T06:12:36;3.13;;;1.67;;
20014;SDS011;61787;42.022;23.078;2023-02-01T06:13:38;4.47;;;1.80;;
20014;SDS011;61787;42.022;23.078;2023-02-01T06:14:39;7.80;;;2.20;;
20014;SDS011;61787;42.022;23.078;2023-02-01T06:15:42;6.67;;;2.30;;
20014;SDS011;61787;42.022;23.078;2023-02-01T06:16:45;5.23;;;1.90;;
20014;SDS011;61787;42.022;23.078;2023-02-01T06:17:47;4.67;;;2.07;;
20014;SDS011;61787;42.022;23.078;2023-02-01T06:18:49;6.20;;;2.20;;
20014;SDS011;61787;42.022;23.078;2023-02-01T06:19:50;13.23;;;2.30;;
20014;SDS011;61787;42.022;23.078;2023-02-01T06:20:55;5.70;;;1.83;;
20014;SDS011;61787;42.022;23.078;2023-02-01T06:21:58;12.90;;;2.00;;
20014;SDS011;61787;42.022;23.078;2023-02-01T06:22:59;7.90;;;2.83;;
20014;SDS011;61787;42.022;23.078;2023-02-01T06:24:01;6.40;;;2.03;;
20014;SDS011;61787;42.022;23.078;2023-02-01T06:25:06;7.73;;;1.90;;
20014;SDS011;61787;42.022;23.078;2023-02-01T06:26:09;8.33;;;2.33;;
20014;SDS011;61787;42.022;23.078;2023-02-01T06:27:10;3.97;;;1.80;;
20014;SDS011;61787;42.022;23.078;2023-02-01T06:28:13;8.83;;;2.30;;
20014;SDS011;61787;42.022;23.078;2023-02-01T06:29:14;10.33;;;2.30;;
20014;SDS011;61787;42.022;23.078;2023-02-01T06:30:16;9.13;;;2.50;;
20014;SDS011;61787;42.022;23.078;2023-02-01T06:31:18;8.67;;;2.30;;
20014;SDS011;61787;42.022;23.078;2023-02-01T06:32:19;7.73;;;1.97;;
20014;SDS011;61787;42.022;23.078;2023-02-01T06:33:21;10.00;;;2.10;;
20014;SDS011;61787;42.022;23.078;2023-02-01T06:34:22;10.23;;;2.33;;
20014;SDS011;61787;42.022;23.078;2023-02-01T06:35:24;10.50;;;2.03;;
20014;SDS011;61787;42.022;23.078;2023-02-01T06:36:27;8.33;;;2.50;;
20014;SDS011;61787;42.022;23.078;2023-02-01T06:37:28;9.10;;;2.20;;
20014;SDS011;61787;42.022;23.078;2023-02-01T06:38:30;12.27;;;2.60;;
20014;SDS011;61787;42.022;23.078;2023-02-01T06:39:32;9.57;;;2.30;;
20014;SDS011;61787;42.022;23.078;2023-02-01T06:40:34;8.57;;;2.67;;
20014;SDS011;61787;42.022;23.078;2023-02-01T06:41:36;11.63;;;2.20;;
20014;SDS011;61787;42.022;23.078;2023-02-01T06:42:38;8.13;;;2.57;;
20014;SDS011;61787;42.022;23.078;2023-02-01T06:43:39;9.80;;;2.23;;
20014;SDS011;61787;42.022;23.078;2023-02-01T06:44:41;8.27;;;2.43;;
20014;SDS011;61787;42.022;23.078;2023-02-01T06:45:43;16.00;;;2.67;;
20014;SDS011;61787;42.022;23.078;2023-02-01T06:46:44;8.63;;;2.63;;
20014;SDS011;61787;42.022;23.078;2023-02-01T06:47:46;13.27;;;2.97;;
20014;SDS011;61787;42.022;23.078;2023-02-01T06:48:47;9.47;;;2.63;;
20014;SDS011;61787;42.022;23.078;2023-02-01T06:49:50;9.37;;;2.53;;
20014;SDS011;61787;42.022;23.078;2023-02-01T06:50:52;9.33;;;2.40;;
20014;SDS011;61787;42.022;23.078;2023-02-01T06:51:53;5.80;;;2.03;;